sensor_id;sensor_type;location;lat;lon;timestamp;pressure;altitude;pressure_sealevel;temperature;humidity
64078;BME280;51039;49.696;10.808;2023-04-23T00:00:58;97696.75;;;13.94;81.38
64078;BME280;51039;49.696;10.808;2023-04-23T00:03:26;97696.75;;;13.94;nan
64078;BME280;51039;49.696;10.808;2023-04-23T00:05:54;97707.66;;;13.93;80.98
64078;BME280;51039;49.696;10.808;2023-04-23T00:08:22;97681.03;;;13.93;80.94
64078;BME280;51039;49.696;10.808;2023-04-23T00:10:47;97700.00;;;13.97;81.81
64078;BME280;51039;49.696;10.808;2023-04-23T00:13:13;97686.63;;;13.91;82.52
64078;BME280;51039;49.696;10.808;2023-04-23T00:15:38;97671.19;;;13.93;81.89
64078;BME280;51039;49.696;10.808;2023-04-23T00:18:04;97680.22;;;13.92;82.16
64078;BME280;51039;49.696;10.808;2023-04-23T00:20:29;97685.22;;;13.89;81.85
64078;BME280;51039;49.696;10.808;2023-04-23T00:22:55;97681.09;;;13.81;81.64
64078;BME280;51039;49.696;10.808;2023-04-23T00:25:20;97674.97;;;13.81;81.27
64078;BME280;51039;49.696;10.808;2023-04-23T00:27:46;97671.34;;;13.87;80.99
64078;BME280;51039;49.696;10.808;2023-04-23T00:30:11;97669.75;;;13.86;80.78
64078;BME280;51039;49.696;10.808;2023-04-23T00:32:37;97677.72;;;13.86;81.08
64078;BME280;51039;49.696;10.808;2023-04-23T00:35:02;97674.72;;;13.82;81.22
64078;BME280;51039;49.696;10.808;2023-04-23T00:37:28;97675.44;;;13.78;81.43
64078;BME280;51039;49.696;10.808;2023-04-23T00:39:53;97669.47;;;13.70;81.74
64078;BME280;51039;49.696;10.808;2023-04-23T00:42:19;97670.97;;;13.66;81.75
64078;BME280;51039;49.696;10.808;2023-04-23T00:44:44;97663.97;;;13.60;81.86
64078;BME280;51039;49.696;10.808;2023-04-23T00:47:10;97678.56;;;13.58;81.70
64078;BME280;51039;49.696;10.808;2023-04-23T00:49:36;97679.75;;;13.50;81.38
64078;BME280;51039;49.696;10.808;2023-04-23T00:52:07;97686.72;;;13.39;81.40
64078;BME280;51039;49.696;10.808;2023-04-23T00:54:32;97689.41;;;13.27;82.11
64078;BME280;51039;49.696;10.808;2023-04-23T00:56:57;97680.09;;;13.13;82.85
64078;BME280;51039;49.696;10.808;2023-04-23T00:59:24;97681.84;;;13.07;83.35
64078;BME280;51039;49.696;10.808;2023-04-23T01:01:50;97685.88;;;13.10;83.34
64078;BME280;51039;49.696;10.808;2023-04-23T01:04:16;97683.09;;;13.05;83.83
64078;BME280;51039;49.696;10.808;2023-04-23T01:06:42;97682.78;;;13.01;84.05
64078;BME280;51039;49.696;10.808;2023-04-23T01:09:11;97691.44;;;12.96;85.12
64078;BME280;51039;49.696;10.808;2023-04-23T01:11:37;97680.72;;;12.91;85.20
64078;BME280;51039;49.696;10.808;2023-04-23T01:14:03;97685.44;;;12.89;85.25
64078;BME280;51039;49.696;10.808;2023-04-23T01:16:29;97690.88;;;12.94;85.32
64078;BME280;51039;49.696;10.808;2023-04-23T01:18:55;97687.75;;;12.98;85.27
64078;BME280;51039;49.696;10.808;2023-04-23T01:21:21;97693.88;;;12.98;85.27
64078;BME280;51039;49.696;10.808;2023-04-23T01:23:49;97690.66;;;12.96;85.77
64078;BME280;51039;49.696;10.808;2023-04-23T01:26:15;97691.44;;;12.96;85.26
64078;BME280;51039;49.696;10.808;2023-04-23T01:28:43;97695.63;;;12.92;85.44
64078;BME280;51039;49.696;10.808;2023-04-23T01:31:09;97691.69;;;12.83;86.60
64078;BME280;51039;49.696;10.808;2023-04-23T01:33:37;97689.41;;;12.75;88.40
64078;BME280;51039;49.696;10.808;2023-04-23T01:36:04;97681.44;;;12.75;88.78
64078;BME280;51039;49.696;10.808;2023-04-23T01:38:29;97685.72;;;12.76;89.31
64078;BME280;51039;49.696;10.808;2023-04-23T01:40:55;97681.31;;;12.70;89.96
64078;BME280;51039;49.696;10.808;2023-04-23T01:43:22;97674.63;;;12.67;90.41
64078;BME280;51039;49.696;10.808;2023-04-23T01:45:49;97673.34;;;12.58;91.38
64078;BME280;51039;49.696;10.808;2023-04-23T01:48:15;97665.97;;;12.60;91.14
64078;BME280;51039;49.696;10.808;2023-04-23T01:50:40;97678.78;;;12.63;91.19
64078;BME280;51039;49.696;10.808;2023-04-23T01:53:06;97680.16;;;12.66;91.30
64078;BME280;51039;49.696;10.808;2023-04-23T01:55:33;97680.97;;;12.66;91.04
64078;BME280;51039;49.696;10.808;2023-04-23T01:58:00;97680.50;;;12.69;90.62
64078;BME280;51039;49.696;10.808;2023-04-23T02:00:26;97690.22;;;12.64;90.77
64078;BME280;51039;49.696;10.808;2023-04-23T02:02:51;97690.78;;;12.66;90.46
64078;BME280;51039;49.696;10.808;2023-04-23T02:05:17;97682.38;;;12.69;90.23
64078;BME280;51039;49.696;10.808;2023-04-23T02:07:44;97682.59;;;12.67;89.63
64078;BME280;51039;49.696;10.808;2023-04-23T02:10:11;97677.72;;;12.64;89.42
64078;BME280;51039;49.696;10.808;2023-04-23T02:12:36;97681.56;;;12.68;89.51
64078;BME280;51039;49.696;10.808;2023-04-23T02:15:03;97683.16;;;12.69;89.37
64078;BME280;51039;49.696;10.808;2023-04-23T02:17:30;97690.44;;;12.62;89.42
64078;BME280;51039;49.696;10.808;2023-04-23T02:19:55;97685.13;;;12.62;89.06
64078;BME280;51039;49.696;10.808;2023-04-23T02:22:21;97688.28;;;12.59;88.97
64078;BME280;51039;49.696;10.808;2023-04-23T02:24:49;97686.75;;;12.63;88.73
64078;BME280;51039;49.696;10.808;2023-04-23T02:27:14;97684.91;;;12.64;88.61
64078;BME280;51039;49.696;10.808;2023-04-23T02:29:40;97686.41;;;12.60;88.68
64078;BME280;51039;49.696;10.808;2023-04-23T02:32:05;97683.63;;;12.54;88.51
64078;BME280;51039;49.696;10.808;2023-04-23T02:34:31;97685.25;;;12.55;88.41
64078;BME280;51039;49.696;10.808;2023-04-23T02:36:56;97694.38;;;12.48;88.82
64078;BME280;51039;49.696;10.808;2023-04-23T02:39:21;97690.44;;;12.50;88.27
64078;BME280;51039;49.696;10.808;2023-04-23T02:41:46;97687.34;;;12.53;88.28
64078;BME280;51039;49.696;10.808;2023-04-23T02:44:12;97694.16;;;12.49;88.41
64078;BME280;51039;49.696;10.808;2023-04-23T02:46:37;97699.13;;;12.46;88.43
64078;BME280;51039;49.696;10.808;2023-04-23T02:49:02;97703.97;;;12.49;88.44
64078;BME280;51039;49.696;10.808;2023-04-23T02:51:29;97701.88;;;12.51;88.30
64078;BME280;51039;49.696;10.808;2023-04-23T02:53:55;97708.47;;;12.48;88.18
64078;BME280;51039;49.696;10.808;2023-04-23T02:56:20;97716.44;;;12.48;88.67
64078;BME280;51039;49.696;10.808;2023-04-23T02:58:46;97709.03;;;12.50;88.48
64078;BME280;51039;49.696;10.808;2023-04-23T03:01:11;97714.50;;;12.55;88.37
64078;BME280;51039;49.696;10.808;2023-04-23T03:03:37;97710.56;;;12.58;88.00
64078;BME280;51039;49.696;10.808;2023-04-23T03:06:02;97714.72;;;12.54;88.70
64078;BME280;51039;49.696;10.808;2023-04-23T03:08:28;97718.28;;;12.60;88.38
64078;BME280;51039;49.696;10.808;2023-04-23T03:10:53;97724.88;;;12.57;88.26
64078;BME280;51039;49.696;10.808;2023-04-23T03:13:19;97727.78;;;12.55;88.84
64078;BME280;51039;49.696;10.808;2023-04-23T03:15:44;97732.28;;;12.55;88.37
64078;BME280;51039;49.696;10.808;2023-04-23T03:18:09;97728.22;;;12.52;88.51
64078;BME280;51039;49.696;10.808;2023-04-23T03:20:35;97729.06;;;12.53;88.96
64078;BME280;51039;49.696;10.808;2023-04-23T03:23:01;97723.13;;;12.51;89.25
64078;BME280;51039;49.696;10.808;2023-04-23T03:25:26;97727.19;;;12.53;89.65
64078;BME280;51039;49.696;10.808;2023-04-23T03:27:52;97723.38;;;12.49;90.04
64078;BME280;51039;49.696;10.808;2023-04-23T03:30:18;97731.00;;;12.46;89.73
64078;BME280;51039;49.696;10.808;2023-04-23T03:32:44;97722.91;;;12.41;90.46
64078;BME280;51039;49.696;10.808;2023-04-23T03:35:09;97726.34;;;12.41;90.70
64078;BME280;51039;49.696;10.808;2023-04-23T03:37:34;97728.69;;;12.37;91.25
64078;BME280;51039;49.696;10.808;2023-04-23T03:40:00;97725.69;;;12.34;91.75
64078;BME280;51039;49.696;10.808;2023-04-23T03:42:30;97728.91;;;12.24;92.54
64078;BME280;51039;49.696;10.808;2023-04-23T03:44:56;97733.38;;;12.24;93.74
64078;BME280;51039;49.696;10.808;2023-04-23T03:47:21;97738.94;;;12.22;94.44
64078;BME280;51039;49.696;10.808;2023-04-23T03:49:46;97732.72;;;12.16;95.29
64078;BME280;51039;49.696;10.808;2023-04-23T03:52:12;97736.16;;;12.17;95.72
64078;BME280;51039;49.696;10.808;2023-04-23T03:54:37;97739.25;;;12.14;96.23
64078;BME280;51039;49.696;10.808;2023-04-23T03:57:02;97734.66;;;12.09;96.53
64078;BME280;51039;49.696;10.808;2023-04-23T03:59:27;97734.06;;;12.07;97.00
64078;BME280;51039;49.696;10.808;2023-04-23T04:01:53;97729.78;;;12.06;96.81
64078;BME280;51039;49.696;10.808;2023-04-23T04:04:18;97730.59;;;12.07;96.58
64078;BME280;51039;49.696;10.808;2023-04-23T04:06:43;97745.25;;;12.09;96.51
64078;BME280;51039;49.696;10.808;2023-04-23T04:09:09;97742.25;;;12.06;96.97
64078;BME280;51039;49.696;10.808;2023-04-23T04:11:34;97737.75;;;12.06;97.24
64078;BME280;51039;49.696;10.808;2023-04-23T04:14:00;97740.09;;;12.14;96.87
64078;BME280;51039;49.696;10.808;2023-04-23T04:16:25;97735.22;;;12.11;96.72
64078;BME280;51039;49.696;10.808;2023-04-23T04:18:51;97737.28;;;12.09;96.58
64078;BME280;51039;49.696;10.808;2023-04-23T04:21:16;97739.59;;;12.06;96.18
64078;BME280;51039;49.696;10.808;2023-04-23T04:23:43;97741.56;;;12.10;96.44
64078;BME280;51039;49.696;10.808;2023-04-23T04:26:08;97746.88;;;12.10;96.49
64078;BME280;51039;49.696;10.808;2023-04-23T04:28:34;97750.09;;;12.12;96.34
64078;BME280;51039;49.696;10.808;2023-04-23T04:31:01;97744.78;;;12.12;95.92
64078;BME280;51039;49.696;10.808;2023-04-23T04:33:27;97746.88;;;12.10;96.22
64078;BME280;51039;49.696;10.808;2023-04-23T04:35:53;97747.00;;;12.15;96.16
64078;BME280;51039;49.696;10.808;2023-04-23T04:38:19;97755.88;;;12.09;96.31
64078;BME280;51039;49.696;10.808;2023-04-23T04:40:45;97749.78;;;12.09;96.44
64078;BME280;51039;49.696;10.808;2023-04-23T04:43:12;97741.56;;;12.10;96.70
64078;BME280;51039;49.696;10.808;2023-04-23T04:45:38;97746.19;;;12.15;96.54
64078;BME280;51039;49.696;10.808;2023-04-23T04:48:03;97750.00;;;12.19;96.43
64078;BME280;51039;49.696;10.808;2023-04-23T04:50:29;97756.13;;;12.20;96.47
64078;BME280;51039;49.696;10.808;2023-04-23T04:52:54;97753.47;;;12.20;96.13
64078;BME280;51039;49.696;10.808;2023-04-23T04:55:19;97750.72;;;12.26;95.42
64078;BME280;51039;49.696;10.808;2023-04-23T04:57:45;97747.94;;;12.33;95.20
64078;BME280;51039;49.696;10.808;2023-04-23T05:00:20;97751.41;;;12.33;95.25
64078;BME280;51039;49.696;10.808;2023-04-23T05:02:50;97757.78;;;12.44;95.00
64078;BME280;51039;49.696;10.808;2023-04-23T05:05:16;97763.09;;;12.44;94.54
64078;BME280;51039;49.696;10.808;2023-04-23T05:07:43;97764.84;;;12.50;93.94
64078;BME280;51039;49.696;10.808;2023-04-23T05:10:08;97771.88;;;12.45;94.00
64078;BME280;51039;49.696;10.808;2023-04-23T05:12:34;97764.59;;;12.52;94.02
64078;BME280;51039;49.696;10.808;2023-04-23T05:14:59;97759.88;;;12.54;94.13
64078;BME280;51039;49.696;10.808;2023-04-23T05:17:24;97770.16;;;12.50;93.91
64078;BME280;51039;49.696;10.808;2023-04-23T05:19:50;97779.03;;;12.56;93.94
64078;BME280;51039;49.696;10.808;2023-04-23T05:22:15;97773.97;;;12.54;93.73
64078;BME280;51039;49.696;10.808;2023-04-23T05:24:42;97782.50;;;12.56;94.28
64078;BME280;51039;49.696;10.808;2023-04-23T05:27:08;97772.72;;;12.57;94.02
64078;BME280;51039;49.696;10.808;2023-04-23T05:29:33;97772.81;;;12.50;93.69
64078;BME280;51039;49.696;10.808;2023-04-23T05:31:59;97768.31;;;12.63;93.68
64078;BME280;51039;49.696;10.808;2023-04-23T05:34:24;97770.28;;;12.67;93.27
64078;BME280;51039;49.696;10.808;2023-04-23T05:36:49;97776.88;;;12.65;92.94
64078;BME280;51039;49.696;10.808;2023-04-23T05:39:15;97783.69;;;12.61;93.46
64078;BME280;51039;49.696;10.808;2023-04-23T05:41:40;97779.19;;;12.61;93.37
64078;BME280;51039;49.696;10.808;2023-04-23T05:44:05;97780.56;;;12.52;93.56
64078;BME280;51039;49.696;10.808;2023-04-23T05:46:30;97784.72;;;12.48;94.00
64078;BME280;51039;49.696;10.808;2023-04-23T05:48:56;97782.63;;;12.50;94.03
64078;BME280;51039;49.696;10.808;2023-04-23T05:51:21;97783.91;;;12.47;93.78
64078;BME280;51039;49.696;10.808;2023-04-23T05:53:46;97794.28;;;12.49;94.21
64078;BME280;51039;49.696;10.808;2023-04-23T05:56:11;97791.03;;;12.47;94.36
64078;BME280;51039;49.696;10.808;2023-04-23T05:58:37;97790.09;;;12.41;94.38
64078;BME280;51039;49.696;10.808;2023-04-23T06:01:02;97783.91;;;12.47;94.17
64078;BME280;51039;49.696;10.808;2023-04-23T06:03:28;97792.69;;;12.60;93.74
64078;BME280;51039;49.696;10.808;2023-04-23T06:05:54;97792.47;;;12.73;92.71
64078;BME280;51039;49.696;10.808;2023-04-23T06:08:19;97796.50;;;12.87;92.18
64078;BME280;51039;49.696;10.808;2023-04-23T06:10:45;97796.97;;;13.08;91.37
64078;BME280;51039;49.696;10.808;2023-04-23T06:13:10;97800.06;;;13.28;90.30
64078;BME280;51039;49.696;10.808;2023-04-23T06:15:36;97803.75;;;13.27;89.37
64078;BME280;51039;49.696;10.808;2023-04-23T06:18:02;97806.09;;;13.35;89.40
64078;BME280;51039;49.696;10.808;2023-04-23T06:20:27;97804.81;;;13.50;88.85
64078;BME280;51039;49.696;10.808;2023-04-23T06:22:53;97807.25;;;13.80;86.94
64078;BME280;51039;49.696;10.808;2023-04-23T06:25:18;97800.66;;;14.11;85.44
64078;BME280;51039;49.696;10.808;2023-04-23T06:27:44;97801.84;;;14.04;85.56
64078;BME280;51039;49.696;10.808;2023-04-23T06:30:09;97807.38;;;13.73;86.62
64078;BME280;51039;49.696;10.808;2023-04-23T06:32:35;97812.66;;;13.45;88.14
64078;BME280;51039;49.696;10.808;2023-04-23T06:35:00;97808.28;;;13.39;88.66
64078;BME280;51039;49.696;10.808;2023-04-23T06:37:26;97808.88;;;13.17;88.99
64078;BME280;51039;49.696;10.808;2023-04-23T06:39:52;97803.56;;;13.17;88.98
64078;BME280;51039;49.696;10.808;2023-04-23T06:42:17;97800.66;;;13.19;89.47
64078;BME280;51039;49.696;10.808;2023-04-23T06:44:42;97804.94;;;13.31;88.73
64078;BME280;51039;49.696;10.808;2023-04-23T06:47:08;97802.16;;;13.26;89.03
64078;BME280;51039;49.696;10.808;2023-04-23T06:49:33;97801.59;;;13.36;88.18
64078;BME280;51039;49.696;10.808;2023-04-23T06:51:58;97804.34;;;13.41;88.17
64078;BME280;51039;49.696;10.808;2023-04-23T06:54:24;97805.50;;;13.45;88.10
64078;BME280;51039;49.696;10.808;2023-04-23T06:56:50;97796.22;;;13.60;87.56
64078;BME280;51039;49.696;10.808;2023-04-23T06:59:16;97780.38;;;13.93;85.82
64078;BME280;51039;49.696;10.808;2023-04-23T07:01:41;97789.44;;;14.43;84.25
64078;BME280;51039;49.696;10.808;2023-04-23T07:04:07;97783.69;;;14.80;81.08
64078;BME280;51039;49.696;10.808;2023-04-23T07:06:32;97781.59;;;14.65;80.68
64078;BME280;51039;49.696;10.808;2023-04-23T07:08:58;97782.94;;;14.85;80.31
64078;BME280;51039;49.696;10.808;2023-04-23T07:11:24;97788.69;;;14.94;80.11
64078;BME280;51039;49.696;10.808;2023-04-23T07:13:49;97786.72;;;14.38;80.00
64078;BME280;51039;49.696;10.808;2023-04-23T07:16:15;97789.94;;;14.40;80.04
64078;BME280;51039;49.696;10.808;2023-04-23T07:18:40;97791.81;;;14.40;79.96
64078;BME280;51039;49.696;10.808;2023-04-23T07:21:05;97796.94;;;14.75;78.57
64078;BME280;51039;49.696;10.808;2023-04-23T07:23:31;97794.13;;;15.21;76.21
64078;BME280;51039;49.696;10.808;2023-04-23T07:25:56;97795.81;;;15.71;73.21
64078;BME280;51039;49.696;10.808;2023-04-23T07:28:21;97800.25;;;16.09;72.35
64078;BME280;51039;49.696;10.808;2023-04-23T07:30:47;97799.50;;;16.46;69.13
64078;BME280;51039;49.696;10.808;2023-04-23T07:33:13;97801.53;;;15.80;71.55
64078;BME280;51039;49.696;10.808;2023-04-23T07:35:38;97801.28;;;15.59;73.02
64078;BME280;51039;49.696;10.808;2023-04-23T07:38:03;97794.94;;;15.87;72.19
64078;BME280;51039;49.696;10.808;2023-04-23T07:40:29;97793.28;;;16.08;71.09
64078;BME280;51039;49.696;10.808;2023-04-23T07:42:54;97792.03;;;16.48;68.18
64078;BME280;51039;49.696;10.808;2023-04-23T07:45:20;97798.13;;;16.12;69.94
64078;BME280;51039;49.696;10.808;2023-04-23T07:47:46;97798.59;;;15.81;71.21
64078;BME280;51039;49.696;10.808;2023-04-23T07:50:12;97791.03;;;15.73;70.55
64078;BME280;51039;49.696;10.808;2023-04-23T07:52:37;97791.16;;;15.61;70.88
64078;BME280;51039;49.696;10.808;2023-04-23T07:55:03;97783.44;;;15.87;70.97
64078;BME280;51039;49.696;10.808;2023-04-23T07:57:29;97777.69;;;16.60;68.54
64078;BME280;51039;49.696;10.808;2023-04-23T07:59:54;97786.75;;;17.39;66.91
64078;BME280;51039;49.696;10.808;2023-04-23T08:02:20;97778.78;;;20.88;57.09
64078;BME280;51039;49.696;10.808;2023-04-23T08:04:49;97779.97;;;22.82;50.12
64078;BME280;51039;49.696;10.808;2023-04-23T08:07:15;97773.00;;;24.06;46.58
64078;BME280;51039;49.696;10.808;2023-04-23T08:09:40;97772.22;;;21.91;51.11
64078;BME280;51039;49.696;10.808;2023-04-23T08:12:06;97765.06;;;22.38;49.83
64078;BME280;51039;49.696;10.808;2023-04-23T08:14:31;97766.53;;;21.73;51.88
64078;BME280;51039;49.696;10.808;2023-04-23T08:16:56;97770.63;;;19.90;55.70
64078;BME280;51039;49.696;10.808;2023-04-23T08:19:22;97775.72;;;19.21;58.04
64078;BME280;51039;49.696;10.808;2023-04-23T08:21:47;97777.91;;;19.04;57.67
64078;BME280;51039;49.696;10.808;2023-04-23T08:24:12;97780.22;;;19.41;57.48
64078;BME280;51039;49.696;10.808;2023-04-23T08:26:38;97763.13;;;20.61;52.87
64078;BME280;51039;49.696;10.808;2023-04-23T08:29:04;97767.91;;;21.23;51.02
64078;BME280;51039;49.696;10.808;2023-04-23T08:31:29;97770.84;;;21.50;49.61
64078;BME280;51039;49.696;10.808;2023-04-23T08:33:55;97766.50;;;20.43;52.00
64078;BME280;51039;49.696;10.808;2023-04-23T08:36:21;97768.53;;;21.38;50.72
64078;BME280;51039;49.696;10.808;2023-04-23T08:38:46;97764.47;;;20.93;51.49
64078;BME280;51039;49.696;10.808;2023-04-23T08:41:12;97766.00;;;22.47;48.43
64078;BME280;51039;49.696;10.808;2023-04-23T08:43:57;97757.88;;;24.73;42.61
64078;BME280;51039;49.696;10.808;2023-04-23T08:46:31;97749.16;;;25.16;41.10
64078;BME280;51039;49.696;10.808;2023-04-23T08:49:01;97759.06;;;25.60;39.99
64078;BME280;51039;49.696;10.808;2023-04-23T08:51:27;97745.03;;;24.56;40.76
64078;BME280;51039;49.696;10.808;2023-04-23T08:53:55;97754.66;;;25.02;39.99
64078;BME280;51039;49.696;10.808;2023-04-23T08:56:22;97748.28;;;26.21;39.40
64078;BME280;51039;49.696;10.808;2023-04-23T08:58:48;97744.56;;;25.82;36.89
64078;BME280;51039;49.696;10.808;2023-04-23T09:01:14;97747.44;;;25.20;39.05
64078;BME280;51039;49.696;10.808;2023-04-23T09:03:41;97739.97;;;26.09;37.66
64078;BME280;51039;49.696;10.808;2023-04-23T09:06:08;97747.44;;;26.64;36.91
64078;BME280;51039;49.696;10.808;2023-04-23T09:08:33;97736.94;;;26.02;38.43
64078;BME280;51039;49.696;10.808;2023-04-23T09:10:59;97753.69;;;26.39;36.94
64078;BME280;51039;49.696;10.808;2023-04-23T09:13:26;97756.03;;;26.58;35.98
64078;BME280;51039;49.696;10.808;2023-04-23T09:15:52;97745.69;;;25.81;37.24
64078;BME280;51039;49.696;10.808;2023-04-23T09:18:18;97750.63;;;26.49;36.50
64078;BME280;51039;49.696;10.808;2023-04-23T09:20:44;97748.97;;;26.92;36.38
64078;BME280;51039;49.696;10.808;2023-04-23T09:23:12;97742.81;;;26.56;35.74
64078;BME280;51039;49.696;10.808;2023-04-23T09:25:38;97737.84;;;26.58;36.33
64078;BME280;51039;49.696;10.808;2023-04-23T09:28:05;97735.47;;;25.87;36.07
64078;BME280;51039;49.696;10.808;2023-04-23T09:30:37;97735.66;;;26.08;35.43
64078;BME280;51039;49.696;10.808;2023-04-23T09:33:04;97734.59;;;26.82;34.59
64078;BME280;51039;49.696;10.808;2023-04-23T09:35:30;97735.09;;;26.76;33.87
64078;BME280;51039;49.696;10.808;2023-04-23T09:37:57;97736.91;;;26.54;35.39
64078;BME280;51039;49.696;10.808;2023-04-23T09:40:23;97728.31;;;28.10;32.37
64078;BME280;51039;49.696;10.808;2023-04-23T09:42:49;97721.00;;;27.21;31.71
64078;BME280;51039;49.696;10.808;2023-04-23T09:45:18;97719.91;;;26.75;35.04
64078;BME280;51039;49.696;10.808;2023-04-23T09:50:15;97711.06;;;25.21;37.58
64078;BME280;51039;49.696;10.808;2023-04-23T09:52:40;97714.22;;;24.65;37.92
64078;BME280;51039;49.696;10.808;2023-04-23T09:55:06;97710.53;;;25.50;37.54
64078;BME280;51039;49.696;10.808;2023-04-23T09:57:42;97717.09;;;26.45;35.65
64078;BME280;51039;49.696;10.808;2023-04-23T10:00:14;97711.66;;;25.49;36.64
64078;BME280;51039;49.696;10.808;2023-04-23T10:03:00;97698.19;;;23.37;39.89
64078;BME280;51039;49.696;10.808;2023-04-23T10:05:26;97699.22;;;24.99;39.28
64078;BME280;51039;49.696;10.808;2023-04-23T10:07:52;97702.56;;;26.41;36.77
64078;BME280;51039;49.696;10.808;2023-04-23T10:10:17;97703.81;;;25.39;38.34
64078;BME280;51039;49.696;10.808;2023-04-23T10:12:44;97689.50;;;24.98;37.93
64078;BME280;51039;49.696;10.808;2023-04-23T10:15:11;97693.13;;;26.38;36.19
64078;BME280;51039;49.696;10.808;2023-04-23T10:17:38;97694.94;;;25.91;35.88
64078;BME280;51039;49.696;10.808;2023-04-23T10:20:05;97692.84;;;25.53;35.84
64078;BME280;51039;49.696;10.808;2023-04-23T10:22:32;97694.47;;;25.97;36.51
64078;BME280;51039;49.696;10.808;2023-04-23T10:25:00;97691.41;;;27.19;36.23
64078;BME280;51039;49.696;10.808;2023-04-23T10:27:32;97687.22;;;26.62;33.46
64078;BME280;51039;49.696;10.808;2023-04-23T10:30:01;97691.03;;;27.38;33.61
64078;BME280;51039;49.696;10.808;2023-04-23T10:32:32;97678.72;;;23.99;39.09
64078;BME280;51039;49.696;10.808;2023-04-23T10:34:58;97677.03;;;24.88;37.47
64078;BME280;51039;49.696;10.808;2023-04-23T10:37:24;97676.38;;;24.29;37.72
64078;BME280;51039;49.696;10.808;2023-04-23T10:39:52;97670.03;;;24.96;36.98
64078;BME280;51039;49.696;10.808;2023-04-23T10:42:19;97673.72;;;25.58;36.47
64078;BME280;51039;49.696;10.808;2023-04-23T10:44:45;97673.63;;;25.23;34.95
64078;BME280;51039;49.696;10.808;2023-04-23T10:47:14;97671.13;;;24.33;37.21
64078;BME280;51039;49.696;10.808;2023-04-23T10:49:40;97670.84;;;23.89;38.57
64078;BME280;51039;49.696;10.808;2023-04-23T10:52:08;97670.97;;;24.06;39.03
64078;BME280;51039;49.696;10.808;2023-04-23T10:54:34;97668.56;;;24.50;38.79
64078;BME280;51039;49.696;10.808;2023-04-23T10:57:01;97664.13;;;23.86;38.49
64078;BME280;51039;49.696;10.808;2023-04-23T10:59:31;97659.88;;;24.08;38.39
64078;BME280;51039;49.696;10.808;2023-04-23T11:02:04;97653.34;;;23.36;38.67
64078;BME280;51039;49.696;10.808;2023-04-23T11:04:31;97650.22;;;23.06;40.51
64078;BME280;51039;49.696;10.808;2023-04-23T11:07:04;97652.03;;;23.47;39.35
64078;BME280;51039;49.696;10.808;2023-04-23T11:14:55;97646.16;;;22.34;41.33
64078;BME280;51039;49.696;10.808;2023-04-23T11:20:13;97630.28;;;23.16;38.22
64078;BME280;51039;49.696;10.808;2023-04-23T11:22:46;97638.38;;;22.47;41.00
64078;BME280;51039;49.696;10.808;2023-04-23T11:27:51;97628.69;;;22.60;41.39
64078;BME280;51039;49.696;10.808;2023-04-23T11:30:20;97627.44;;;22.38;40.30
64078;BME280;51039;49.696;10.808;2023-04-23T11:32:48;97630.78;;;21.83;41.51
64078;BME280;51039;49.696;10.808;2023-04-23T11:35:22;97630.94;;;21.73;42.67
64078;BME280;51039;49.696;10.808;2023-04-23T11:37:54;97622.66;;;22.35;42.39
64078;BME280;51039;49.696;10.808;2023-04-23T11:40:19;97626.44;;;22.01;42.61
64078;BME280;51039;49.696;10.808;2023-04-23T11:42:47;97618.69;;;22.13;41.99
64078;BME280;51039;49.696;10.808;2023-04-23T11:45:19;97624.22;;;21.70;44.05
64078;BME280;51039;49.696;10.808;2023-04-23T11:47:45;97622.25;;;21.19;44.49
64078;BME280;51039;49.696;10.808;2023-04-23T11:50:18;97618.97;;;20.79;45.82
64078;BME280;51039;49.696;10.808;2023-04-23T11:52:45;97615.31;;;20.94;45.22
64078;BME280;51039;49.696;10.808;2023-04-23T11:55:11;97612.16;;;20.87;45.57
64078;BME280;51039;49.696;10.808;2023-04-23T11:57:40;97604.94;;;20.58;46.51
64078;BME280;51039;49.696;10.808;2023-04-23T12:02:52;97616.16;;;20.12;48.57
64078;BME280;51039;49.696;10.808;2023-04-23T12:05:22;97610.88;;;20.02;49.36
64078;BME280;51039;49.696;10.808;2023-04-23T12:07:51;97603.19;;;20.19;49.45
64078;BME280;51039;49.696;10.808;2023-04-23T12:10:18;97601.72;;;21.23;46.45
64078;BME280;51039;49.696;10.808;2023-04-23T12:12:47;97594.53;;;21.56;46.20
64078;BME280;51039;49.696;10.808;2023-04-23T12:15:13;97594.22;;;21.77;45.74
64078;BME280;51039;49.696;10.808;2023-04-23T12:17:39;97588.38;;;22.35;43.93
64078;BME280;51039;49.696;10.808;2023-04-23T12:20:04;97581.16;;;21.84;46.55
64078;BME280;51039;49.696;10.808;2023-04-23T12:22:35;97591.50;;;22.10;44.22
64078;BME280;51039;49.696;10.808;2023-04-23T12:25:03;97585.69;;;22.03;42.80
64078;BME280;51039;49.696;10.808;2023-04-23T12:27:32;97577.78;;;22.53;41.88
64078;BME280;51039;49.696;10.808;2023-04-23T12:29:58;97583.56;;;22.88;42.24
64078;BME280;51039;49.696;10.808;2023-04-23T12:32:24;97570.59;;;22.48;42.34
64078;BME280;51039;49.696;10.808;2023-04-23T12:34:51;97576.34;;;22.14;42.01
64078;BME280;51039;49.696;10.808;2023-04-23T12:37:17;97569.44;;;22.22;41.43
64078;BME280;51039;49.696;10.808;2023-04-23T12:39:49;97566.47;;;22.92;39.55
64078;BME280;51039;49.696;10.808;2023-04-23T12:42:14;97556.56;;;23.61;38.87
64078;BME280;51039;49.696;10.808;2023-04-23T12:44:40;97562.34;;;22.95;40.57
64078;BME280;51039;49.696;10.808;2023-04-23T12:47:08;97561.09;;;22.51;39.39
64078;BME280;51039;49.696;10.808;2023-04-23T12:49:43;97559.91;;;22.29;39.10
64078;BME280;51039;49.696;10.808;2023-04-23T12:52:08;97552.31;;;22.31;39.46
64078;BME280;51039;49.696;10.808;2023-04-23T12:54:34;97551.81;;;21.50;39.95
64078;BME280;51039;49.696;10.808;2023-04-23T12:57:02;97552.72;;;21.59;41.37
64078;BME280;51039;49.696;10.808;2023-04-23T12:59:29;97542.16;;;22.09;40.21
64078;BME280;51039;49.696;10.808;2023-04-23T13:01:55;97541.00;;;22.57;40.35